METAR AND TAF INFORMATION
METAR FOR KIAH
ADDS - METARS form results

(2301 UTC 22 May 2018)
Data provider http://aviationweather.gov/adds/metars/
 
METAR text: KIAH 222253Z 00000KT 10SM TS FEW028CB SCT045 BKN070 BKN150 BKN250 25/22 A2993 RMK AO2 LTG DSNT N TSE02B42 SLP134 OCNL LTGICCG N-E TS N-E MOV N T02500222
Conditions at: KIAH (HOUSTON/INTNL , TX, US) observed 2253 UTC 22 May 2018
Temperature: 25.0°C (77°F)
Dewpoint: 22.2°C (72°F) [RH = 84%]
Pressure (altimeter): 29.93 inches Hg (1013.6 mb)
[Sea-level pressure: 1013.4 mb]
Winds: calm
Visibility: 10 or more miles (16+ km)
Ceiling: 7000 feet AGL
Clouds: few clouds at 2800 feet AGL
scattered clouds at 4500 feet AGL
broken clouds at 7000 feet AGL
broken clouds at 15000 feet AGL
Weather: TS  (thunderstorm)

METAR text: KIAH 222242Z 00000KT 10SM TS FEW028CB SCT045 BKN070 BKN150 BKN250 29/21 A2993 RMK AO2 LTG DSNT N AND NW TSE02B42 OCNL LTGICCG OHD TS OHD MOV N CB DSNT N T02890211
Conditions at: KIAH (HOUSTON/INTNL , TX, US) observed 2242 UTC 22 May 2018
Temperature: 28.9°C (84°F)
Dewpoint: 21.1°C (70°F) [RH = 63%]
Pressure (altimeter): 29.93 inches Hg (1013.6 mb)
Winds: calm
Visibility: 10 or more miles (16+ km)
Ceiling: 7000 feet AGL
Clouds: few clouds at 2800 feet AGL
scattered clouds at 4500 feet AGL
broken clouds at 7000 feet AGL
broken clouds at 15000 feet AGL
Weather: TS  (thunderstorm)

METAR text: KIAH 222202Z 00000KT 10SM FEW023 SCT048 BKN070 BKN140 BKN250 29/22 A2993 RMK AO2 LTG DSNT NW-NE TSE02 TS MOV N CB DSNT N-NE NW T02940217
Conditions at: KIAH (HOUSTON/INTNL , TX, US) observed 2202 UTC 22 May 2018
Temperature: 29.4°C (85°F)
Dewpoint: 21.7°C (71°F) [RH = 63%]
Pressure (altimeter): 29.93 inches Hg (1013.6 mb)
Winds: calm
Visibility: 10 or more miles (16+ km)
Ceiling: 7000 feet AGL
Clouds: few clouds at 2300 feet AGL
scattered clouds at 4800 feet AGL
broken clouds at 7000 feet AGL
broken clouds at 14000 feet AGL
Weather: no significant weather observed at this time

Forecast for: KIAH (HOUSTON/INTNL , TX, US)
Text: KIAH 222242Z 2223/2324 00000KT P6SM VCTS SCT025CB BKN070
Forecast period: 2300 UTC 22 May 2018 to 0900 UTC 23 May 2018
Forecast type: FROM: standard forecast or significant change
Winds: calm
Visibility: 6 or more miles (10+ km)
Ceiling: 7000 feet AGL
Clouds: scattered clouds at 2500 feet AGL
broken clouds at 7000 feet AGL
Weather: VCTS  (thunderstorm in vicinity)
Forecast for: KIAH (HOUSTON/INTNL , TX, US)
Text: KIAH 222242Z 2223/2324 00000KT P6SM VCTS SCT025CB BKN070
Forecast period: 2300 UTC 22 May 2018 to 0900 UTC 23 May 2018
Forecast type: FROM: standard forecast or significant change
Winds: calm
Visibility: 6 or more miles (10+ km)
Ceiling: 7000 feet AGL
Clouds: scattered clouds at 2500 feet AGL
broken clouds at 7000 feet AGL
Weather: VCTS  (thunderstorm in vicinity)
Forecast for: KIAH (HOUSTON/INTNL , TX, US)
Text: KIAH 222242Z 2223/2324 00000KT P6SM VCTS SCT025CB BKN070
Forecast period: 2300 UTC 22 May 2018 to 0000 UTC 23 May 2018
Forecast type: TEMPORARY: The following changes expected for less than half the time period
Winds: variable direction winds at 17 MPH (15 knots; 7.8 m/s)
gusting to 29 MPH (25 knots; 13.0 m/s)
Visibility: 3 miles (5 km)
Ceiling: 2500 feet AGL
Clouds: broken clouds at 2500 feet AGL
Weather: TSRA BR  (rain associated with thunderstorm(s), mist)
Forecast for: KIAH (HOUSTON/INTNL , TX, US)
Text: KIAH 222242Z 2223/2324 00000KT P6SM VCTS SCT025CB BKN070
Forecast period: 2300 UTC 22 May 2018 to 0000 UTC 23 May 2018
Forecast type: TEMPORARY: The following changes expected for less than half the time period
Winds: variable direction winds at 17 MPH (15 knots; 7.8 m/s)
gusting to 29 MPH (25 knots; 13.0 m/s)
Visibility: 3 miles (5 km)
Ceiling: 2500 feet AGL
Clouds: broken clouds at 2500 feet AGL
Weather: TSRA BR  (rain associated with thunderstorm(s), mist)
Forecast for: KIAH (HOUSTON/INTNL , TX, US)
Text: KIAH 222242Z 2223/2324 00000KT P6SM VCTS SCT025CB BKN070
Forecast period: 0900 to 1900 UTC 23 May 2018
Forecast type: FROM: standard forecast or significant change
Winds: from the E (90 degrees) at 5 MPH (4 knots; 2.1 m/s)
Visibility: 6 or more miles (10+ km)
Clouds: scattered clouds at 2000 feet AGL
scattered clouds at 25000 feet AGL
Weather: no significant weather forecast for this period
Forecast for: KIAH (HOUSTON/INTNL , TX, US)
Text: KIAH 222242Z 2223/2324 00000KT P6SM VCTS SCT025CB BKN070
Forecast period: 0900 to 1900 UTC 23 May 2018
Forecast type: FROM: standard forecast or significant change
Winds: from the E (90 degrees) at 5 MPH (4 knots; 2.1 m/s)
Visibility: 6 or more miles (10+ km)
Clouds: scattered clouds at 2000 feet AGL
scattered clouds at 25000 feet AGL
Weather: no significant weather forecast for this period
Forecast for: KIAH (HOUSTON/INTNL , TX, US)
Text: KIAH 222242Z 2223/2324 00000KT P6SM VCTS SCT025CB BKN070
Forecast period: 1900 to 2200 UTC 23 May 2018
Forecast type: FROM: standard forecast or significant change
Winds: from the ESE (120 degrees) at 7 MPH (6 knots; 3.1 m/s)
Visibility: 6 or more miles (10+ km)
Clouds: scattered clouds at 3500 feet AGL
Weather: VCSH  (showers in vicinity)
Forecast for: KIAH (HOUSTON/INTNL , TX, US)
Text: KIAH 222242Z 2223/2324 00000KT P6SM VCTS SCT025CB BKN070
Forecast period: 1900 to 2200 UTC 23 May 2018
Forecast type: FROM: standard forecast or significant change
Winds: from the ESE (120 degrees) at 7 MPH (6 knots; 3.1 m/s)
Visibility: 6 or more miles (10+ km)
Clouds: scattered clouds at 3500 feet AGL
Weather: VCSH  (showers in vicinity)
Forecast for: KIAH (HOUSTON/INTNL , TX, US)
Text: KIAH 222242Z 2223/2324 00000KT P6SM VCTS SCT025CB BKN070
Forecast period: 2200 UTC 23 May 2018 to 0000 UTC 24 May 2018
Forecast type: FROM: standard forecast or significant change
Winds: from the SE (140 degrees) at 9 MPH (8 knots; 4.2 m/s)
Visibility: 6 or more miles (10+ km)
Clouds: scattered clouds at 4000 feet AGL
Weather: VCTS  (thunderstorm in vicinity)
Forecast for: KIAH (HOUSTON/INTNL , TX, US)
Text: KIAH 222242Z 2223/2324 00000KT P6SM VCTS SCT025CB BKN070
Forecast period: 2200 UTC 23 May 2018 to 0000 UTC 24 May 2018
Forecast type: FROM: standard forecast or significant change
Winds: from the SE (140 degrees) at 9 MPH (8 knots; 4.2 m/s)
Visibility: 6 or more miles (10+ km)
Clouds: scattered clouds at 4000 feet AGL
Weather: VCTS  (thunderstorm in vicinity)

 AIRPORT MAP

 RUNWAY INFORMATION
Runway 08L Runway length 9000 ft Runway width 150 ft
Runway elevation 92 ft Runway displaced threshold 0 ft Runway heading 90
Runway 26R Runway length 9000 ft Runway width 150 ft
Runway elevation 95 ft Runway displaced threshold 0 ft Runway heading 270
Runway 08R Runway length 9402 ft Runway width 150 ft
Runway elevation 95 ft Runway displaced threshold 0 ft Runway heading 90
Runway 26L Runway length 9402 ft Runway width 150 ft
Runway elevation 92 ft Runway displaced threshold 0 ft Runway heading 270
Runway 09 Runway length 10000 ft Runway width 150 ft
Runway elevation 91 ft Runway displaced threshold 0 ft Runway heading 90
Runway 27 Runway length 10000 ft Runway width 150 ft
Runway elevation 84 ft Runway displaced threshold 0 ft Runway heading 270
Runway 15L Runway length 12001 ft Runway width 150 ft
Runway elevation 97 ft Runway displaced threshold 0 ft Runway heading 152
Runway 33R Runway length 12001 ft Runway width 150 ft
Runway elevation 86 ft Runway displaced threshold 0 ft Runway heading 332
Runway 15R Runway length 9999 ft Runway width 150 ft
Runway elevation 95 ft Runway displaced threshold 0 ft Runway heading 152
Runway 33L Runway length 9999 ft Runway width 150 ft
Runway elevation 88 ft Runway displaced threshold 0 ft Runway heading 332

 AIRPORT FREQUENCIES
Type APP Name APP Frequency 120.05 MHZ
Type ATIS Name ATIS Frequency 124.05 MHZ
Type CLD Name CLNC DEL Frequency 128.1 MHZ
Type DEP Name DEP Frequency 28.14 MHZ
Type DEP Name DEP Frequency 119.7 MHZ
Type GND Name GND Frequency 118.575 MHZ
Type RDO Name MONTGOMERY Frequency 122.4 MHZ
Type TWR Name TWR Frequency 29.02 MHZ
Type TWR Name TWR Frequency 120.725 MHZ
Type UNIC Name UNICOM Frequency 122.95 MHZ

 AIRPORT NEAR NAVIGATION AIDS
Type NDB Name Nixin Frequency 326 KHZ


... ... ... ... ... ...

© Copyright 2017 All Rights Reserved. Virtual NATO is in no way affiliated with NATO or any of the NATO Members

NATO Virtual is a volunteer not for profit group of friends with the common interest in promoting enjoyment and education through the simulation of military operations and procedure through the use of operating standards within several flight simulation platforms.

Powered by Virtual Airlines Manager [v2.6.2] Customized by Virtual NATO